Time,TemperatureF,DewpointF,PressureIn,WindDirection,WindDirectionDegrees,WindSpeedMPH,WindSpeedGustMPH,Humidity,HourlyPrecipIn,Conditions,Clouds,dailyrainin,SolarRadiationWatts/m^2,SoftwareType,DateUTC
2013-11-23 00:18:00,15.6,9.0,30.61,SSE,163,0.0,-999.0,76,-99.99,,,0.00,0,weatherlink.com 1.10,2013-11-23 06:18:00,
2013-11-23 00:28:00,16.1,9.0,30.61,SSE,163,0.0,-999.0,74,-99.99,,,0.00,0,weatherlink.com 1.10,2013-11-23 06:28:00,
2013-11-23 00:43:00,16.7,9.0,30.62,SSE,163,0.0,-999.0,73,-99.99,,,0.00,0,weatherlink.com 1.10,2013-11-23 06:43:00,
2013-11-23 00:58:00,16.7,9.0,30.62,SSE,163,0.0,-999.0,73,-99.99,,,0.00,0,weatherlink.com 1.10,2013-11-23 06:58:00,
2013-11-23 01:13:00,16.5,9.0,30.64,SSE,163,0.0,-999.0,73,-99.99,,,0.00,0,weatherlink.com 1.10,2013-11-23 07:13:00,
2013-11-23 01:29:00,16.7,10.0,30.64,SSE,165,2.0,-999.0,74,-99.99,,,0.00,0,weatherlink.com 1.10,2013-11-23 07:29:00,
2013-11-23 01:43:00,17.3,10.0,30.64,South,169,2.0,-999.0,74,-99.99,,,0.00,0,weatherlink.com 1.10,2013-11-23 07:43:00,
2013-11-23 01:58:00,17.7,11.0,30.64,SSE,168,5.0,-999.0,74,-99.99,,,0.00,0,weatherlink.com 1.10,2013-11-23 07:58:00,
2013-11-23 02:13:00,18.0,11.0,30.65,SSE,167,0.0,-999.0,74,-99.99,,,0.00,0,weatherlink.com 1.10,2013-11-23 08:13:00,
2013-11-23 02:28:00,18.4,11.0,30.65,South,169,3.0,-999.0,72,-99.99,,,0.00,0,weatherlink.com 1.10,2013-11-23 08:28:00,
2013-11-23 02:43:00,18.9,11.0,30.66,South,169,2.0,-999.0,70,-99.99,,,0.00,0,weatherlink.com 1.10,2013-11-23 08:43:00,
2013-11-23 02:58:00,19.1,10.0,30.66,South,169,0.0,-999.0,69,-99.99,,,0.00,0,weatherlink.com 1.10,2013-11-23 08:58:00,
2013-11-23 03:14:00,18.9,10.0,30.66,SSE,168,0.0,-999.0,68,-99.99,,,0.00,0,weatherlink.com 1.10,2013-11-23 09:14:00,
2013-11-23 03:29:00,18.9,10.0,30.66,South,184,0.0,-999.0,68,-99.99,,,0.00,0,weatherlink.com 1.10,2013-11-23 09:29:00,
2013-11-23 03:49:00,18.3,10.0,30.67,South,174,2.0,-999.0,70,-99.99,,,0.00,0,weatherlink.com 1.10,2013-11-23 09:49:00,
2013-11-23 03:59:00,18.0,9.0,30.67,SSE,168,2.0,-999.0,69,-99.99,,,0.00,0,weatherlink.com 1.10,2013-11-23 09:59:00,
2013-11-23 04:14:00,17.5,9.0,30.67,SSE,156,5.0,-999.0,68,-99.99,,,0.00,0,weatherlink.com 1.10,2013-11-23 10:14:00,
2013-11-23 04:29:00,17.2,9.0,30.68,South,173,1.0,-999.0,69,-99.99,,,0.00,0,weatherlink.com 1.10,2013-11-23 10:29:00,
2013-11-23 04:44:00,16.7,6.0,30.68,South,173,3.0,-999.0,64,-99.99,,,0.00,0,weatherlink.com 1.10,2013-11-23 10:44:00,
2013-11-23 04:59:00,16.1,5.0,30.69,South,174,6.0,-999.0,61,-99.99,,,0.00,0,weatherlink.com 1.10,2013-11-23 10:59:00,
2013-11-23 05:14:00,15.6,5.0,30.70,South,182,5.0,-999.0,62,-99.99,,,0.00,0,weatherlink.com 1.10,2013-11-23 11:14:00,
2013-11-23 05:29:00,15.1,5.0,30.72,SSE,164,2.0,-999.0,63,-99.99,,,0.00,0,weatherlink.com 1.10,2013-11-23 11:29:00,
2013-11-23 05:44:00,14.4,4.0,30.72,SSE,153,4.0,-999.0,63,-99.99,,,0.00,0,weatherlink.com 1.10,2013-11-23 11:44:00,
2013-11-23 06:09:00,13.5,3.0,30.73,SSE,154,0.0,-999.0,64,-99.99,,,0.00,0,weatherlink.com 1.10,2013-11-23 12:09:00,
2013-11-23 06:14:00,13.3,3.0,30.73,SSE,167,0.0,-999.0,64,-99.99,,,0.00,0,weatherlink.com 1.10,2013-11-23 12:14:00,
2013-11-23 06:29:00,12.9,3.0,30.75,South,171,1.0,-999.0,64,-99.99,,,0.00,0,weatherlink.com 1.10,2013-11-23 12:29:00,
2013-11-23 06:44:00,12.6,2.0,30.76,SSE,158,3.0,-999.0,63,-99.99,,,0.00,0,weatherlink.com 1.10,2013-11-23 12:44:00,
2013-11-23 06:59:00,12.1,2.0,30.76,SSE,166,2.0,-999.0,65,-99.99,,,0.00,0,weatherlink.com 1.10,2013-11-23 12:59:00,
2013-11-23 07:20:00,11.6,3.0,30.78,South,177,1.0,-999.0,67,-99.99,,,0.00,7,weatherlink.com 1.10,2013-11-23 13:20:00,
2013-11-23 07:29:00,11.2,2.0,30.78,SSE,160,2.0,-999.0,67,-99.99,,,0.00,11,weatherlink.com 1.10,2013-11-23 13:29:00,
2013-11-23 07:44:00,10.9,2.0,30.80,SSE,161,2.0,-999.0,68,-99.99,,,0.00,16,weatherlink.com 1.10,2013-11-23 13:44:00,
2013-11-23 07:59:00,10.7,2.0,30.81,SSE,165,7.0,-999.0,69,-99.99,,,0.00,26,weatherlink.com 1.10,2013-11-23 13:59:00,
2013-11-23 08:14:00,10.4,2.0,30.81,SSE,163,1.0,-999.0,70,-99.99,,,0.00,35,weatherlink.com 1.10,2013-11-23 14:14:00,
2013-11-23 08:29:00,10.4,2.0,30.82,South,174,4.0,-999.0,70,-99.99,,,0.00,28,weatherlink.com 1.10,2013-11-23 14:29:00,
2013-11-23 08:44:00,10.2,2.0,30.83,SE,136,2.0,-999.0,70,-99.99,,,0.00,35,weatherlink.com 1.10,2013-11-23 14:44:00,
2013-11-23 08:59:00,10.5,3.0,30.84,South,175,6.0,-999.0,71,-99.99,,,0.00,98,weatherlink.com 1.10,2013-11-23 14:59:00,
2013-11-23 09:14:00,11.7,3.0,30.84,South,176,2.0,-999.0,69,-99.99,,,0.00,206,weatherlink.com 1.10,2013-11-23 15:14:00,
2013-11-23 09:39:00,14.1,4.0,30.85,South,188,5.0,-999.0,65,-99.99,,,0.00,318,weatherlink.com 1.10,2013-11-23 15:39:00,
2013-11-23 09:44:00,14.6,4.0,30.85,South,173,8.0,-999.0,63,-99.99,,,0.00,339,weatherlink.com 1.10,2013-11-23 15:44:00,
2013-11-23 09:59:00,15.6,5.0,30.86,South,186,10.0,-999.0,63,-99.99,,,0.00,374,weatherlink.com 1.10,2013-11-23 15:59:00,
2013-11-23 10:14:00,15.7,4.0,30.86,SSE,165,2.0,-999.0,59,-99.99,,,0.00,403,weatherlink.com 1.10,2013-11-23 16:14:00,
2013-11-23 10:29:00,16.2,4.0,30.86,SSE,162,7.0,-999.0,58,-99.99,,,0.00,429,weatherlink.com 1.10,2013-11-23 16:29:00,
2013-11-23 10:51:00,17.5,5.0,30.85,South,179,3.0,-999.0,59,-99.99,,,0.00,457,weatherlink.com 1.10,2013-11-23 16:51:00,
2013-11-23 11:00:00,17.7,4.0,30.85,SSW,192,4.0,-999.0,56,-99.99,,,0.00,466,weatherlink.com 1.10,2013-11-23 17:00:00,
2013-11-23 11:15:00,18.1,5.0,30.85,SE,146,3.0,-999.0,56,-99.99,,,0.00,476,weatherlink.com 1.10,2013-11-23 17:15:00,
2013-11-23 11:30:00,17.0,4.0,30.85,SSE,158,0.0,-999.0,58,-99.99,,,0.00,496,weatherlink.com 1.10,2013-11-23 17:30:00,
2013-11-23 11:45:00,17.5,5.0,30.84,SSE,156,0.0,-999.0,59,-99.99,,,0.00,497,weatherlink.com 1.10,2013-11-23 17:45:00,
2013-11-23 12:00:00,17.7,5.0,30.84,SSE,165,4.0,-999.0,58,-99.99,,,0.00,496,weatherlink.com 1.10,2013-11-23 18:00:00,
2013-11-23 12:23:00,18.6,6.0,30.84,South,174,0.0,-999.0,59,-99.99,,,0.00,388,weatherlink.com 1.10,2013-11-23 18:23:00,
2013-11-23 12:29:00,18.4,6.0,30.84,South,170,2.0,-999.0,58,-99.99,,,0.00,179,weatherlink.com 1.10,2013-11-23 18:29:00,
2013-11-23 12:44:00,17.5,6.0,30.84,SSE,159,2.0,-999.0,60,-99.99,,,0.00,186,weatherlink.com 1.10,2013-11-23 18:44:00,
2013-11-23 12:59:00,18.1,5.0,30.84,South,175,2.0,-999.0,58,-99.99,,,0.00,120,weatherlink.com 1.10,2013-11-23 18:59:00,
2013-11-23 13:14:00,18.8,4.0,30.83,South,171,4.0,-999.0,53,-99.99,,,0.00,292,weatherlink.com 1.10,2013-11-23 19:14:00,
2013-11-23 13:29:00,19.1,5.0,30.83,SSE,165,2.0,-999.0,54,-99.99,,,0.00,278,weatherlink.com 1.10,2013-11-23 19:29:00,
2013-11-23 13:44:00,18.9,4.0,30.83,SSE,167,3.0,-999.0,53,-99.99,,,0.00,65,weatherlink.com 1.10,2013-11-23 19:44:00,
2013-11-23 13:59:00,18.8,5.0,30.82,South,187,3.0,-999.0,54,-99.99,,,0.00,146,weatherlink.com 1.10,2013-11-23 19:59:00,
2013-11-23 14:14:00,19.2,4.0,30.83,SE,144,1.0,-999.0,52,-99.99,,,0.00,269,weatherlink.com 1.10,2013-11-23 20:14:00,
2013-11-23 14:29:00,19.5,4.0,30.82,SSE,158,1.0,-999.0,50,-99.99,,,0.00,301,weatherlink.com 1.10,2013-11-23 20:29:00,
2013-11-23 14:44:00,19.7,4.0,30.82,SSE,160,0.0,-999.0,50,-99.99,,,0.00,294,weatherlink.com 1.10,2013-11-23 20:44:00,
2013-11-23 15:00:00,20.8,4.0,30.82,SSE,166,1.0,-999.0,48,-99.99,,,0.00,257,weatherlink.com 1.10,2013-11-23 21:00:00,
2013-11-23 15:15:00,20.6,3.0,30.82,SSW,205,3.0,-999.0,46,-99.99,,,0.00,216,weatherlink.com 1.10,2013-11-23 21:15:00,
2013-11-23 15:30:00,20.2,2.0,30.82,SSE,153,0.0,-999.0,46,-99.99,,,0.00,156,weatherlink.com 1.10,2013-11-23 21:30:00,
2013-11-23 15:45:00,20.0,4.0,30.82,South,180,7.0,-999.0,49,-99.99,,,0.00,79,weatherlink.com 1.10,2013-11-23 21:45:00,
2013-11-23 16:00:00,19.9,4.0,30.82,South,176,1.0,-999.0,51,-99.99,,,0.00,65,weatherlink.com 1.10,2013-11-23 22:00:00,
2013-11-23 16:15:00,19.5,4.0,30.82,South,175,2.0,-999.0,50,-99.99,,,0.00,28,weatherlink.com 1.10,2013-11-23 22:15:00,
2013-11-23 16:30:00,18.3,3.0,30.83,SSE,166,0.0,-999.0,52,-99.99,,,0.00,12,weatherlink.com 1.10,2013-11-23 22:30:00,
2013-11-23 16:45:00,16.9,2.0,30.83,South,178,1.0,-999.0,53,-99.99,,,0.00,0,weatherlink.com 1.10,2013-11-23 22:45:00,
2013-11-23 17:00:00,15.7,2.0,30.84,South,175,0.0,-999.0,55,-99.99,,,0.00,0,weatherlink.com 1.10,2013-11-23 23:00:00,
2013-11-23 17:15:00,14.9,2.0,30.83,South,180,1.0,-999.0,57,-99.99,,,0.00,0,weatherlink.com 1.10,2013-11-23 23:15:00,
2013-11-23 17:30:00,14.3,2.0,30.83,South,182,0.0,-999.0,59,-99.99,,,0.00,0,weatherlink.com 1.10,2013-11-23 23:30:00,
2013-11-23 17:45:00,13.6,2.0,30.83,South,184,0.0,-999.0,60,-99.99,,,0.00,0,weatherlink.com 1.10,2013-11-23 23:45:00,
2013-11-23 18:00:00,12.9,2.0,30.83,South,184,0.0,-999.0,62,-99.99,,,0.00,0,weatherlink.com 1.10,2013-11-24 00:00:00,
2013-11-23 18:15:00,12.3,2.0,30.83,South,184,0.0,-999.0,63,-99.99,,,0.00,0,weatherlink.com 1.10,2013-11-24 00:15:00,
2013-11-23 18:30:00,11.2,2.0,30.83,South,184,0.0,-999.0,66,-99.99,,,0.00,0,weatherlink.com 1.10,2013-11-24 00:30:00,
2013-11-23 18:45:00,10.4,2.0,30.83,South,184,0.0,-999.0,68,-99.99,,,0.00,0,weatherlink.com 1.10,2013-11-24 00:45:00,
2013-11-23 19:00:00,9.9,2.0,30.83,South,184,0.0,-999.0,70,-99.99,,,0.00,0,weatherlink.com 1.10,2013-11-24 01:00:00,
2013-11-23 19:15:00,9.7,2.0,30.83,South,184,0.0,-999.0,71,-99.99,,,0.00,0,weatherlink.com 1.10,2013-11-24 01:15:00,
2013-11-23 19:30:00,9.5,2.0,30.83,South,184,0.0,-999.0,72,-99.99,,,0.00,0,weatherlink.com 1.10,2013-11-24 01:30:00,
2013-11-23 19:45:00,9.0,2.0,30.83,South,184,0.0,-999.0,73,-99.99,,,0.00,0,weatherlink.com 1.10,2013-11-24 01:45:00,
2013-11-23 20:00:00,8.3,2.0,30.84,South,184,0.0,-999.0,74,-99.99,,,0.00,0,weatherlink.com 1.10,2013-11-24 02:00:00,
2013-11-23 20:15:00,7.7,1.0,30.84,South,184,0.0,-999.0,75,-99.99,,,0.00,0,weatherlink.com 1.10,2013-11-24 02:15:00,
2013-11-23 20:30:00,7.2,1.0,30.84,South,184,0.0,-999.0,76,-99.99,,,0.00,0,weatherlink.com 1.10,2013-11-24 02:30:00,
2013-11-23 20:45:00,7.2,1.0,30.84,South,184,0.0,-999.0,77,-99.99,,,0.00,0,weatherlink.com 1.10,2013-11-24 02:45:00,
2013-11-23 21:00:00,7.0,2.0,30.84,South,184,0.0,-999.0,78,-99.99,,,0.00,0,weatherlink.com 1.10,2013-11-24 03:00:00,
2013-11-23 21:15:00,7.4,2.0,30.84,South,184,0.0,-999.0,79,-99.99,,,0.00,0,weatherlink.com 1.10,2013-11-24 03:15:00,
2013-11-23 21:30:00,7.9,2.0,30.82,South,184,0.0,-999.0,78,-99.99,,,0.00,0,weatherlink.com 1.10,2013-11-24 03:30:00,
2013-11-23 21:45:00,8.3,3.0,30.82,South,184,0.0,-999.0,78,-99.99,,,0.00,0,weatherlink.com 1.10,2013-11-24 03:45:00,
2013-11-23 22:00:00,8.4,3.0,30.82,South,184,0.0,-999.0,77,-99.99,,,0.00,0,weatherlink.com 1.10,2013-11-24 04:00:00,
2013-11-23 22:15:00,7.6,2.0,30.82,South,184,0.0,-999.0,77,-99.99,,,0.00,0,weatherlink.com 1.10,2013-11-24 04:15:00,
2013-11-23 22:30:00,7.2,1.0,30.82,South,184,0.0,-999.0,77,-99.99,,,0.00,0,weatherlink.com 1.10,2013-11-24 04:30:00,
2013-11-23 22:45:00,7.2,2.0,30.82,South,184,0.0,-999.0,78,-99.99,,,0.00,0,weatherlink.com 1.10,2013-11-24 04:45:00,
2013-11-23 23:00:00,6.9,1.0,30.81,South,184,0.0,-999.0,78,-99.99,,,0.00,0,weatherlink.com 1.10,2013-11-24 05:00:00,
2013-11-23 23:15:00,6.5,1.0,30.80,South,184,0.0,-999.0,78,-99.99,,,0.00,0,weatherlink.com 1.10,2013-11-24 05:15:00,
2013-11-23 23:30:00,5.8,1.0,30.80,South,184,0.0,-999.0,79,-99.99,,,0.00,0,weatherlink.com 1.10,2013-11-24 05:30:00,
2013-11-23 23:45:00,5.6,1.0,30.81,South,184,0.0,-999.0,80,-99.99,,,0.00,0,weatherlink.com 1.10,2013-11-24 05:45:00,